sensor_id;sensor_type;location;lat;lon;timestamp;P1;durP1;ratioP1;P2;durP2;ratioP2
60610;SDS011;46439;51.164;13.572;2023-11-21T00:01:33;3.00;;;1.30;;
60610;SDS011;46439;51.164;13.572;2023-11-21T00:04:01;2.10;;;1.60;;
60610;SDS011;46439;51.164;13.572;2023-11-21T00:06:30;2.10;;;1.30;;
60610;SDS011;46439;51.164;13.572;2023-11-21T00:08:59;2.20;;;1.40;;
60610;SDS011;46439;51.164;13.572;2023-11-21T00:11:27;1.80;;;1.40;;
60610;SDS011;46439;51.164;13.572;2023-11-21T00:13:56;3.20;;;1.40;;
60610;SDS011;46439;51.164;13.572;2023-11-21T00:16:24;3.30;;;1.50;;
60610;SDS011;46439;51.164;13.572;2023-11-21T00:18:53;2.40;;;1.30;;
60610;SDS011;46439;51.164;13.572;2023-11-21T00:21:22;3.20;;;1.40;;
60610;SDS011;46439;51.164;13.572;2023-11-21T00:23:51;3.00;;;1.60;;
60610;SDS011;46439;51.164;13.572;2023-11-21T00:26:20;4.50;;;1.80;;
60610;SDS011;46439;51.164;13.572;2023-11-21T00:28:49;3.00;;;1.90;;
60610;SDS011;46439;51.164;13.572;2023-11-21T00:31:17;2.70;;;1.30;;
60610;SDS011;46439;51.164;13.572;2023-11-21T00:33:46;3.60;;;1.40;;
60610;SDS011;46439;51.164;13.572;2023-11-21T00:36:15;3.60;;;1.30;;
60610;SDS011;46439;51.164;13.572;2023-11-21T00:38:43;2.40;;;1.50;;
60610;SDS011;46439;51.164;13.572;2023-11-21T00:41:12;1.50;;;1.40;;
60610;SDS011;46439;51.164;13.572;2023-11-21T00:43:41;2.50;;;1.40;;
60610;SDS011;46439;51.164;13.572;2023-11-21T00:46:11;3.10;;;1.60;;
60610;SDS011;46439;51.164;13.572;2023-11-21T00:48:40;2.90;;;1.50;;
60610;SDS011;46439;51.164;13.572;2023-11-21T00:51:08;3.50;;;1.20;;
60610;SDS011;46439;51.164;13.572;2023-11-21T00:53:37;3.90;;;1.40;;
60610;SDS011;46439;51.164;13.572;2023-11-21T00:56:07;2.50;;;1.40;;
60610;SDS011;46439;51.164;13.572;2023-11-21T00:58:36;2.80;;;1.60;;
60610;SDS011;46439;51.164;13.572;2023-11-21T01:01:05;2.50;;;1.60;;
60610;SDS011;46439;51.164;13.572;2023-11-21T01:03:34;6.20;;;1.60;;
60610;SDS011;46439;51.164;13.572;2023-11-21T01:06:03;1.70;;;1.30;;
60610;SDS011;46439;51.164;13.572;2023-11-21T01:08:34;7.90;;;1.80;;
60610;SDS011;46439;51.164;13.572;2023-11-21T01:11:03;2.50;;;1.50;;
60610;SDS011;46439;51.164;13.572;2023-11-21T01:13:35;3.80;;;1.30;;
60610;SDS011;46439;51.164;13.572;2023-11-21T01:16:04;3.60;;;1.50;;
60610;SDS011;46439;51.164;13.572;2023-11-21T01:18:34;3.20;;;1.50;;
60610;SDS011;46439;51.164;13.572;2023-11-21T01:21:03;1.90;;;1.40;;
60610;SDS011;46439;51.164;13.572;2023-11-21T01:23:32;2.40;;;1.40;;
60610;SDS011;46439;51.164;13.572;2023-11-21T01:26:02;4.40;;;1.50;;
60610;SDS011;46439;51.164;13.572;2023-11-21T01:28:31;3.00;;;1.40;;
60610;SDS011;46439;51.164;13.572;2023-11-21T01:30:59;3.20;;;1.40;;
60610;SDS011;46439;51.164;13.572;2023-11-21T01:33:28;3.20;;;1.40;;
60610;SDS011;46439;51.164;13.572;2023-11-21T01:35:57;3.50;;;1.60;;
60610;SDS011;46439;51.164;13.572;2023-11-21T01:38:26;5.80;;;1.50;;
60610;SDS011;46439;51.164;13.572;2023-11-21T01:40:56;4.20;;;1.30;;
60610;SDS011;46439;51.164;13.572;2023-11-21T01:43:27;2.50;;;1.50;;
60610;SDS011;46439;51.164;13.572;2023-11-21T01:45:57;3.20;;;1.30;;
60610;SDS011;46439;51.164;13.572;2023-11-21T01:48:26;3.70;;;1.60;;
60610;SDS011;46439;51.164;13.572;2023-11-21T01:50:56;3.20;;;1.50;;
60610;SDS011;46439;51.164;13.572;2023-11-21T01:53:25;3.00;;;1.50;;
60610;SDS011;46439;51.164;13.572;2023-11-21T01:55:54;3.40;;;1.30;;
60610;SDS011;46439;51.164;13.572;2023-11-21T01:58:24;3.10;;;1.30;;
60610;SDS011;46439;51.164;13.572;2023-11-21T02:00:53;3.00;;;1.60;;
60610;SDS011;46439;51.164;13.572;2023-11-21T02:03:22;1.80;;;1.30;;
60610;SDS011;46439;51.164;13.572;2023-11-21T02:05:51;3.20;;;1.50;;
60610;SDS011;46439;51.164;13.572;2023-11-21T02:08:20;2.80;;;1.30;;
60610;SDS011;46439;51.164;13.572;2023-11-21T02:10:48;3.40;;;1.40;;
60610;SDS011;46439;51.164;13.572;2023-11-21T02:13:17;3.70;;;1.50;;
60610;SDS011;46439;51.164;13.572;2023-11-21T02:15:46;4.70;;;1.50;;
60610;SDS011;46439;51.164;13.572;2023-11-21T02:18:16;3.20;;;1.50;;
60610;SDS011;46439;51.164;13.572;2023-11-21T02:20:45;2.60;;;1.80;;
60610;SDS011;46439;51.164;13.572;2023-11-21T02:23:13;3.30;;;1.80;;
60610;SDS011;46439;51.164;13.572;2023-11-21T02:25:42;4.90;;;1.70;;
60610;SDS011;46439;51.164;13.572;2023-11-21T02:28:11;4.30;;;1.80;;
60610;SDS011;46439;51.164;13.572;2023-11-21T02:30:42;4.20;;;1.50;;
60610;SDS011;46439;51.164;13.572;2023-11-21T02:33:11;2.20;;;1.30;;
60610;SDS011;46439;51.164;13.572;2023-11-21T02:35:39;4.00;;;1.60;;
60610;SDS011;46439;51.164;13.572;2023-11-21T02:38:10;4.60;;;1.60;;
60610;SDS011;46439;51.164;13.572;2023-11-21T02:40:38;3.60;;;1.50;;
60610;SDS011;46439;51.164;13.572;2023-11-21T02:43:07;5.50;;;2.20;;
60610;SDS011;46439;51.164;13.572;2023-11-21T02:45:35;5.80;;;2.10;;
60610;SDS011;46439;51.164;13.572;2023-11-21T02:48:05;2.60;;;1.60;;
60610;SDS011;46439;51.164;13.572;2023-11-21T02:50:33;2.60;;;1.50;;
60610;SDS011;46439;51.164;13.572;2023-11-21T02:53:02;3.40;;;1.50;;
60610;SDS011;46439;51.164;13.572;2023-11-21T02:55:32;4.70;;;1.80;;
60610;SDS011;46439;51.164;13.572;2023-11-21T02:58:01;5.30;;;1.60;;
60610;SDS011;46439;51.164;13.572;2023-11-21T03:00:30;3.80;;;1.50;;
60610;SDS011;46439;51.164;13.572;2023-11-21T03:02:59;2.40;;;1.70;;
60610;SDS011;46439;51.164;13.572;2023-11-21T03:05:27;4.50;;;1.70;;
60610;SDS011;46439;51.164;13.572;2023-11-21T03:07:56;4.30;;;1.70;;
60610;SDS011;46439;51.164;13.572;2023-11-21T03:10:24;6.40;;;2.00;;
60610;SDS011;46439;51.164;13.572;2023-11-21T03:12:53;5.30;;;1.70;;
60610;SDS011;46439;51.164;13.572;2023-11-21T03:15:23;5.00;;;1.80;;
60610;SDS011;46439;51.164;13.572;2023-11-21T03:17:52;4.10;;;1.90;;
60610;SDS011;46439;51.164;13.572;2023-11-21T03:20:21;4.10;;;2.10;;
60610;SDS011;46439;51.164;13.572;2023-11-21T03:22:49;4.00;;;1.80;;
60610;SDS011;46439;51.164;13.572;2023-11-21T03:25:18;3.90;;;2.00;;
60610;SDS011;46439;51.164;13.572;2023-11-21T03:27:47;5.60;;;1.90;;
60610;SDS011;46439;51.164;13.572;2023-11-21T03:30:15;5.10;;;2.00;;
60610;SDS011;46439;51.164;13.572;2023-11-21T03:32:44;6.90;;;1.90;;
60610;SDS011;46439;51.164;13.572;2023-11-21T03:35:13;3.70;;;1.70;;
60610;SDS011;46439;51.164;13.572;2023-11-21T03:37:41;3.90;;;1.70;;
60610;SDS011;46439;51.164;13.572;2023-11-21T03:40:11;7.00;;;2.00;;
60610;SDS011;46439;51.164;13.572;2023-11-21T03:42:39;2.90;;;1.60;;
60610;SDS011;46439;51.164;13.572;2023-11-21T03:45:09;4.10;;;1.60;;
60610;SDS011;46439;51.164;13.572;2023-11-21T03:47:39;4.10;;;1.70;;
60610;SDS011;46439;51.164;13.572;2023-11-21T03:50:08;5.50;;;2.00;;
60610;SDS011;46439;51.164;13.572;2023-11-21T03:52:37;3.40;;;1.70;;
60610;SDS011;46439;51.164;13.572;2023-11-21T03:55:06;5.70;;;1.90;;
60610;SDS011;46439;51.164;13.572;2023-11-21T03:57:37;2.90;;;1.70;;
60610;SDS011;46439;51.164;13.572;2023-11-21T04:00:06;4.40;;;2.20;;
60610;SDS011;46439;51.164;13.572;2023-11-21T04:02:36;3.10;;;1.70;;
60610;SDS011;46439;51.164;13.572;2023-11-21T04:05:06;4.70;;;2.00;;
60610;SDS011;46439;51.164;13.572;2023-11-21T04:07:35;6.10;;;2.00;;
60610;SDS011;46439;51.164;13.572;2023-11-21T04:10:06;7.90;;;2.00;;
60610;SDS011;46439;51.164;13.572;2023-11-21T04:12:39;5.30;;;2.00;;
60610;SDS011;46439;51.164;13.572;2023-11-21T04:15:08;7.30;;;2.10;;
60610;SDS011;46439;51.164;13.572;2023-11-21T04:17:39;5.30;;;2.00;;
60610;SDS011;46439;51.164;13.572;2023-11-21T04:20:09;5.30;;;1.80;;
60610;SDS011;46439;51.164;13.572;2023-11-21T04:22:38;6.40;;;2.00;;
60610;SDS011;46439;51.164;13.572;2023-11-21T04:25:09;3.80;;;2.00;;
60610;SDS011;46439;51.164;13.572;2023-11-21T04:27:38;5.90;;;2.20;;
60610;SDS011;46439;51.164;13.572;2023-11-21T04:30:11;4.40;;;1.90;;
60610;SDS011;46439;51.164;13.572;2023-11-21T04:32:40;4.30;;;1.90;;
60610;SDS011;46439;51.164;13.572;2023-11-21T04:35:09;7.30;;;2.40;;
60610;SDS011;46439;51.164;13.572;2023-11-21T04:37:38;7.50;;;2.40;;
60610;SDS011;46439;51.164;13.572;2023-11-21T04:40:07;6.20;;;2.20;;
60610;SDS011;46439;51.164;13.572;2023-11-21T04:42:37;7.60;;;2.10;;
60610;SDS011;46439;51.164;13.572;2023-11-21T04:45:07;4.60;;;2.10;;
60610;SDS011;46439;51.164;13.572;2023-11-21T04:47:38;4.80;;;2.20;;
60610;SDS011;46439;51.164;13.572;2023-11-21T04:50:07;5.40;;;1.90;;
60610;SDS011;46439;51.164;13.572;2023-11-21T04:52:37;4.70;;;2.10;;
60610;SDS011;46439;51.164;13.572;2023-11-21T04:55:06;5.10;;;2.10;;
60610;SDS011;46439;51.164;13.572;2023-11-21T04:57:36;6.50;;;2.60;;
60610;SDS011;46439;51.164;13.572;2023-11-21T05:00:08;6.00;;;2.50;;
60610;SDS011;46439;51.164;13.572;2023-11-21T05:02:39;8.50;;;2.40;;
60610;SDS011;46439;51.164;13.572;2023-11-21T05:05:08;6.90;;;2.30;;
60610;SDS011;46439;51.164;13.572;2023-11-21T05:07:38;6.30;;;2.30;;
60610;SDS011;46439;51.164;13.572;2023-11-21T05:10:08;6.20;;;2.40;;
60610;SDS011;46439;51.164;13.572;2023-11-21T05:12:41;6.60;;;2.10;;
60610;SDS011;46439;51.164;13.572;2023-11-21T05:15:12;6.20;;;2.50;;
60610;SDS011;46439;51.164;13.572;2023-11-21T05:17:42;6.90;;;2.50;;
60610;SDS011;46439;51.164;13.572;2023-11-21T05:20:12;7.70;;;3.00;;
60610;SDS011;46439;51.164;13.572;2023-11-21T05:25:11;7.90;;;4.40;;
60610;SDS011;46439;51.164;13.572;2023-11-21T05:27:40;12.00;;;7.50;;
60610;SDS011;46439;51.164;13.572;2023-11-21T05:30:09;6.50;;;3.10;;
60610;SDS011;46439;51.164;13.572;2023-11-21T05:32:40;9.10;;;3.00;;
60610;SDS011;46439;51.164;13.572;2023-11-21T05:35:10;5.10;;;2.40;;
60610;SDS011;46439;51.164;13.572;2023-11-21T05:37:42;8.50;;;2.70;;
60610;SDS011;46439;51.164;13.572;2023-11-21T05:40:12;7.80;;;2.80;;
60610;SDS011;46439;51.164;13.572;2023-11-21T05:42:41;8.50;;;2.60;;
60610;SDS011;46439;51.164;13.572;2023-11-21T05:45:11;5.80;;;2.70;;
60610;SDS011;46439;51.164;13.572;2023-11-21T05:47:41;5.20;;;2.70;;
60610;SDS011;46439;51.164;13.572;2023-11-21T05:50:12;8.10;;;2.80;;
60610;SDS011;46439;51.164;13.572;2023-11-21T05:52:42;7.20;;;2.60;;
60610;SDS011;46439;51.164;13.572;2023-11-21T05:55:12;5.60;;;2.60;;
60610;SDS011;46439;51.164;13.572;2023-11-21T05:57:41;8.00;;;3.50;;
60610;SDS011;46439;51.164;13.572;2023-11-21T06:00:11;10.80;;;6.20;;
60610;SDS011;46439;51.164;13.572;2023-11-21T06:02:48;14.60;;;9.10;;
60610;SDS011;46439;51.164;13.572;2023-11-21T06:05:18;18.20;;;9.90;;
60610;SDS011;46439;51.164;13.572;2023-11-21T06:07:49;15.60;;;8.20;;
60610;SDS011;46439;51.164;13.572;2023-11-21T06:10:19;11.90;;;5.90;;
60610;SDS011;46439;51.164;13.572;2023-11-21T06:12:49;6.30;;;3.30;;
60610;SDS011;46439;51.164;13.572;2023-11-21T06:15:17;6.60;;;3.40;;
60610;SDS011;46439;51.164;13.572;2023-11-21T06:17:47;5.20;;;3.20;;
60610;SDS011;46439;51.164;13.572;2023-11-21T06:20:19;10.10;;;3.20;;
60610;SDS011;46439;51.164;13.572;2023-11-21T06:22:48;17.10;;;6.10;;
60610;SDS011;46439;51.164;13.572;2023-11-21T06:25:17;21.30;;;10.40;;
60610;SDS011;46439;51.164;13.572;2023-11-21T06:27:46;27.00;;;13.70;;
60610;SDS011;46439;51.164;13.572;2023-11-21T06:30:15;28.50;;;15.60;;
60610;SDS011;46439;51.164;13.572;2023-11-21T06:32:46;18.10;;;8.70;;
60610;SDS011;46439;51.164;13.572;2023-11-21T06:35:14;12.60;;;4.80;;
60610;SDS011;46439;51.164;13.572;2023-11-21T06:37:43;10.10;;;3.70;;
60610;SDS011;46439;51.164;13.572;2023-11-21T06:40:14;6.20;;;3.30;;
60610;SDS011;46439;51.164;13.572;2023-11-21T06:42:45;12.00;;;4.60;;
60610;SDS011;46439;51.164;13.572;2023-11-21T06:45:13;8.60;;;3.30;;
60610;SDS011;46439;51.164;13.572;2023-11-21T06:47:42;6.50;;;3.00;;
60610;SDS011;46439;51.164;13.572;2023-11-21T06:50:11;9.90;;;3.30;;
60610;SDS011;46439;51.164;13.572;2023-11-21T06:52:40;6.60;;;2.90;;
60610;SDS011;46439;51.164;13.572;2023-11-21T06:55:10;10.30;;;4.00;;
60610;SDS011;46439;51.164;13.572;2023-11-21T06:57:39;8.10;;;3.40;;
60610;SDS011;46439;51.164;13.572;2023-11-21T07:00:09;11.50;;;3.30;;
60610;SDS011;46439;51.164;13.572;2023-11-21T07:02:38;7.30;;;3.20;;
60610;SDS011;46439;51.164;13.572;2023-11-21T07:05:07;8.50;;;3.50;;
60610;SDS011;46439;51.164;13.572;2023-11-21T07:07:36;9.50;;;3.30;;
60610;SDS011;46439;51.164;13.572;2023-11-21T07:10:06;8.80;;;3.80;;
60610;SDS011;46439;51.164;13.572;2023-11-21T07:12:36;7.90;;;3.50;;
60610;SDS011;46439;51.164;13.572;2023-11-21T07:15:06;6.70;;;3.70;;
60610;SDS011;46439;51.164;13.572;2023-11-21T07:17:36;9.00;;;3.80;;
60610;SDS011;46439;51.164;13.572;2023-11-21T07:20:05;7.80;;;3.60;;
60610;SDS011;46439;51.164;13.572;2023-11-21T07:22:35;10.10;;;3.60;;
60610;SDS011;46439;51.164;13.572;2023-11-21T07:25:04;6.70;;;3.80;;
60610;SDS011;46439;51.164;13.572;2023-11-21T07:30:04;6.40;;;3.80;;
60610;SDS011;46439;51.164;13.572;2023-11-21T07:32:36;9.30;;;3.80;;
60610;SDS011;46439;51.164;13.572;2023-11-21T07:35:07;8.30;;;4.10;;
60610;SDS011;46439;51.164;13.572;2023-11-21T07:37:36;7.40;;;3.80;;
60610;SDS011;46439;51.164;13.572;2023-11-21T07:40:06;12.20;;;4.30;;
60610;SDS011;46439;51.164;13.572;2023-11-21T07:42:38;7.70;;;4.00;;
60610;SDS011;46439;51.164;13.572;2023-11-21T07:45:08;9.40;;;4.10;;
60610;SDS011;46439;51.164;13.572;2023-11-21T07:47:38;10.50;;;5.00;;
60610;SDS011;46439;51.164;13.572;2023-11-21T07:50:08;11.60;;;4.40;;
60610;SDS011;46439;51.164;13.572;2023-11-21T07:52:37;10.80;;;4.20;;
60610;SDS011;46439;51.164;13.572;2023-11-21T07:55:07;11.90;;;4.50;;
60610;SDS011;46439;51.164;13.572;2023-11-21T07:57:36;12.70;;;5.60;;
60610;SDS011;46439;51.164;13.572;2023-11-21T08:00:05;10.40;;;5.00;;
60610;SDS011;46439;51.164;13.572;2023-11-21T08:02:38;10.80;;;4.90;;
60610;SDS011;46439;51.164;13.572;2023-11-21T08:05:12;13.20;;;5.10;;
60610;SDS011;46439;51.164;13.572;2023-11-21T08:07:42;17.10;;;7.30;;
60610;SDS011;46439;51.164;13.572;2023-11-21T08:10:11;20.40;;;9.00;;
60610;SDS011;46439;51.164;13.572;2023-11-21T08:12:39;17.00;;;9.40;;
60610;SDS011;46439;51.164;13.572;2023-11-21T08:15:10;22.00;;;13.20;;
60610;SDS011;46439;51.164;13.572;2023-11-21T08:17:38;23.30;;;14.90;;
60610;SDS011;46439;51.164;13.572;2023-11-21T08:20:08;21.80;;;14.90;;
60610;SDS011;46439;51.164;13.572;2023-11-21T08:22:38;19.40;;;12.60;;
60610;SDS011;46439;51.164;13.572;2023-11-21T08:25:08;17.40;;;10.30;;
60610;SDS011;46439;51.164;13.572;2023-11-21T08:27:37;17.20;;;8.80;;
60610;SDS011;46439;51.164;13.572;2023-11-21T08:30:07;14.30;;;6.20;;
60610;SDS011;46439;51.164;13.572;2023-11-21T08:32:37;13.20;;;6.00;;
60610;SDS011;46439;51.164;13.572;2023-11-21T08:35:07;10.00;;;5.40;;
60610;SDS011;46439;51.164;13.572;2023-11-21T08:37:36;10.80;;;5.60;;
60610;SDS011;46439;51.164;13.572;2023-11-21T08:40:12;11.60;;;6.00;;
60610;SDS011;46439;51.164;13.572;2023-11-21T08:42:43;11.20;;;5.90;;
60610;SDS011;46439;51.164;13.572;2023-11-21T08:45:12;12.50;;;6.20;;
60610;SDS011;46439;51.164;13.572;2023-11-21T08:47:41;16.70;;;6.80;;
60610;SDS011;46439;51.164;13.572;2023-11-21T08:50:11;14.00;;;6.70;;
60610;SDS011;46439;51.164;13.572;2023-11-21T08:52:40;12.00;;;6.40;;
60610;SDS011;46439;51.164;13.572;2023-11-21T08:55:10;13.00;;;6.10;;
60610;SDS011;46439;51.164;13.572;2023-11-21T08:57:39;11.20;;;6.10;;
60610;SDS011;46439;51.164;13.572;2023-11-21T09:00:11;12.80;;;6.30;;
60610;SDS011;46439;51.164;13.572;2023-11-21T09:02:43;5.70;;;3.90;;
60610;SDS011;46439;51.164;13.572;2023-11-21T09:05:13;3.60;;;2.40;;
60610;SDS011;46439;51.164;13.572;2023-11-21T09:07:42;4.40;;;2.60;;
60610;SDS011;46439;51.164;13.572;2023-11-21T09:10:12;3.40;;;2.50;;
60610;SDS011;46439;51.164;13.572;2023-11-21T09:12:41;3.80;;;2.50;;
60610;SDS011;46439;51.164;13.572;2023-11-21T09:15:10;2.20;;;2.00;;
60610;SDS011;46439;51.164;13.572;2023-11-21T09:17:39;3.10;;;2.20;;
60610;SDS011;46439;51.164;13.572;2023-11-21T09:20:09;3.30;;;2.50;;
60610;SDS011;46439;51.164;13.572;2023-11-21T09:22:39;6.70;;;3.20;;
60610;SDS011;46439;51.164;13.572;2023-11-21T09:25:08;5.60;;;3.10;;
60610;SDS011;46439;51.164;13.572;2023-11-21T09:27:37;5.40;;;3.80;;
60610;SDS011;46439;51.164;13.572;2023-11-21T09:30:18;6.20;;;3.50;;
60610;SDS011;46439;51.164;13.572;2023-11-21T09:32:56;5.70;;;4.00;;
60610;SDS011;46439;51.164;13.572;2023-11-21T09:35:25;8.30;;;4.80;;
60610;SDS011;46439;51.164;13.572;2023-11-21T09:37:54;6.30;;;4.00;;
60610;SDS011;46439;51.164;13.572;2023-11-21T09:40:23;6.80;;;4.10;;
60610;SDS011;46439;51.164;13.572;2023-11-21T09:42:56;8.30;;;4.80;;
60610;SDS011;46439;51.164;13.572;2023-11-21T09:45:28;8.70;;;5.10;;
60610;SDS011;46439;51.164;13.572;2023-11-21T09:48:01;6.50;;;4.20;;
60610;SDS011;46439;51.164;13.572;2023-11-21T09:50:30;7.40;;;4.20;;
60610;SDS011;46439;51.164;13.572;2023-11-21T09:53:02;9.60;;;6.00;;
60610;SDS011;46439;51.164;13.572;2023-11-21T09:55:38;11.10;;;6.70;;
60610;SDS011;46439;51.164;13.572;2023-11-21T09:58:09;11.40;;;6.70;;
60610;SDS011;46439;51.164;13.572;2023-11-21T10:00:41;11.20;;;7.20;;
60610;SDS011;46439;51.164;13.572;2023-11-21T10:03:11;10.90;;;6.40;;
60610;SDS011;46439;51.164;13.572;2023-11-21T10:05:41;10.00;;;6.30;;
60610;SDS011;46439;51.164;13.572;2023-11-21T10:08:12;11.40;;;6.40;;
60610;SDS011;46439;51.164;13.572;2023-11-21T10:10:43;11.00;;;6.60;;
60610;SDS011;46439;51.164;13.572;2023-11-21T10:13:13;10.00;;;6.30;;
60610;SDS011;46439;51.164;13.572;2023-11-21T10:15:44;9.30;;;5.50;;
60610;SDS011;46439;51.164;13.572;2023-11-21T10:18:19;9.50;;;5.90;;
60610;SDS011;46439;51.164;13.572;2023-11-21T10:20:49;7.80;;;4.80;;
60610;SDS011;46439;51.164;13.572;2023-11-21T10:23:20;8.70;;;4.90;;
60610;SDS011;46439;51.164;13.572;2023-11-21T10:25:49;7.50;;;4.60;;
60610;SDS011;46439;51.164;13.572;2023-11-21T10:28:19;5.80;;;3.70;;
60610;SDS011;46439;51.164;13.572;2023-11-21T10:30:47;7.10;;;4.40;;
60610;SDS011;46439;51.164;13.572;2023-11-21T10:33:16;7.60;;;4.60;;
60610;SDS011;46439;51.164;13.572;2023-11-21T10:35:53;7.10;;;4.60;;
60610;SDS011;46439;51.164;13.572;2023-11-21T10:38:22;7.30;;;4.10;;
60610;SDS011;46439;51.164;13.572;2023-11-21T10:40:52;7.70;;;4.70;;
60610;SDS011;46439;51.164;13.572;2023-11-21T10:43:21;7.80;;;4.70;;
60610;SDS011;46439;51.164;13.572;2023-11-21T10:45:53;8.60;;;4.90;;
60610;SDS011;46439;51.164;13.572;2023-11-21T10:48:26;7.40;;;5.10;;
60610;SDS011;46439;51.164;13.572;2023-11-21T10:50:55;6.60;;;4.40;;
60610;SDS011;46439;51.164;13.572;2023-11-21T10:53:23;6.60;;;4.40;;
60610;SDS011;46439;51.164;13.572;2023-11-21T10:56:01;7.10;;;4.70;;
60610;SDS011;46439;51.164;13.572;2023-11-21T10:58:33;9.60;;;4.60;;
60610;SDS011;46439;51.164;13.572;2023-11-21T11:01:04;8.70;;;5.40;;
60610;SDS011;46439;51.164;13.572;2023-11-21T11:03:34;10.00;;;5.40;;
60610;SDS011;46439;51.164;13.572;2023-11-21T11:06:05;8.40;;;5.20;;
60610;SDS011;46439;51.164;13.572;2023-11-21T11:08:38;9.00;;;5.50;;
60610;SDS011;46439;51.164;13.572;2023-11-21T11:11:07;8.70;;;5.60;;
60610;SDS011;46439;51.164;13.572;2023-11-21T11:13:37;8.80;;;5.20;;
60610;SDS011;46439;51.164;13.572;2023-11-21T11:16:09;9.70;;;5.80;;
60610;SDS011;46439;51.164;13.572;2023-11-21T11:18:38;10.70;;;6.70;;
60610;SDS011;46439;51.164;13.572;2023-11-21T11:21:11;12.60;;;6.60;;
60610;SDS011;46439;51.164;13.572;2023-11-21T11:23:53;10.30;;;6.30;;
60610;SDS011;46439;51.164;13.572;2023-11-21T11:26:42;11.10;;;6.40;;
60610;SDS011;46439;51.164;13.572;2023-11-21T11:29:22;12.20;;;6.90;;
60610;SDS011;46439;51.164;13.572;2023-11-21T11:32:01;10.70;;;6.50;;
60610;SDS011;46439;51.164;13.572;2023-11-21T11:34:36;9.00;;;5.70;;
60610;SDS011;46439;51.164;13.572;2023-11-21T11:37:11;10.40;;;6.10;;
60610;SDS011;46439;51.164;13.572;2023-11-21T11:39:41;10.50;;;6.40;;
60610;SDS011;46439;51.164;13.572;2023-11-21T11:42:11;13.40;;;6.80;;
60610;SDS011;46439;51.164;13.572;2023-11-21T11:44:51;11.10;;;6.30;;
60610;SDS011;46439;51.164;13.572;2023-11-21T11:47:22;12.40;;;6.80;;
60610;SDS011;46439;51.164;13.572;2023-11-21T11:50:07;11.50;;;6.50;;
60610;SDS011;46439;51.164;13.572;2023-11-21T11:53:15;12.70;;;7.10;;
60610;SDS011;46439;51.164;13.572;2023-11-21T11:55:45;12.60;;;8.00;;
60610;SDS011;46439;51.164;13.572;2023-11-21T11:58:24;11.60;;;7.40;;
60610;SDS011;46439;51.164;13.572;2023-11-21T12:01:07;13.30;;;7.70;;
60610;SDS011;46439;51.164;13.572;2023-11-21T12:03:38;11.80;;;7.30;;
60610;SDS011;46439;51.164;13.572;2023-11-21T12:06:07;14.50;;;7.70;;
60610;SDS011;46439;51.164;13.572;2023-11-21T12:08:38;12.90;;;7.90;;
60610;SDS011;46439;51.164;13.572;2023-11-21T12:11:08;10.90;;;7.30;;
60610;SDS011;46439;51.164;13.572;2023-11-21T12:13:40;11.90;;;7.80;;
60610;SDS011;46439;51.164;13.572;2023-11-21T12:16:09;12.30;;;7.60;;
60610;SDS011;46439;51.164;13.572;2023-11-21T12:18:38;11.70;;;6.80;;
60610;SDS011;46439;51.164;13.572;2023-11-21T12:21:07;14.50;;;7.10;;
60610;SDS011;46439;51.164;13.572;2023-11-21T12:23:36;11.40;;;7.10;;
60610;SDS011;46439;51.164;13.572;2023-11-21T12:26:06;11.40;;;6.50;;
60610;SDS011;46439;51.164;13.572;2023-11-21T12:28:35;11.70;;;6.90;;
60610;SDS011;46439;51.164;13.572;2023-11-21T12:31:05;11.60;;;6.60;;
60610;SDS011;46439;51.164;13.572;2023-11-21T12:33:34;11.80;;;6.70;;
60610;SDS011;46439;51.164;13.572;2023-11-21T12:36:03;10.80;;;7.00;;
60610;SDS011;46439;51.164;13.572;2023-11-21T12:38:34;11.20;;;6.80;;
60610;SDS011;46439;51.164;13.572;2023-11-21T12:41:04;10.60;;;6.40;;
60610;SDS011;46439;51.164;13.572;2023-11-21T12:43:36;13.50;;;7.20;;
60610;SDS011;46439;51.164;13.572;2023-11-21T12:46:06;9.50;;;6.40;;
60610;SDS011;46439;51.164;13.572;2023-11-21T12:48:38;10.50;;;7.50;;
60610;SDS011;46439;51.164;13.572;2023-11-21T12:51:10;13.50;;;8.90;;
60610;SDS011;46439;51.164;13.572;2023-11-21T12:53:42;13.40;;;8.50;;
60610;SDS011;46439;51.164;13.572;2023-11-21T12:56:11;13.00;;;9.40;;
60610;SDS011;46439;51.164;13.572;2023-11-21T12:58:43;12.20;;;8.50;;
60610;SDS011;46439;51.164;13.572;2023-11-21T13:01:18;10.60;;;6.90;;
60610;SDS011;46439;51.164;13.572;2023-11-21T13:03:58;12.00;;;8.10;;
60610;SDS011;46439;51.164;13.572;2023-11-21T13:06:28;11.50;;;7.10;;
60610;SDS011;46439;51.164;13.572;2023-11-21T13:09:01;17.60;;;8.50;;
60610;SDS011;46439;51.164;13.572;2023-11-21T13:11:38;12.10;;;8.00;;
60610;SDS011;46439;51.164;13.572;2023-11-21T13:14:21;11.40;;;7.30;;
60610;SDS011;46439;51.164;13.572;2023-11-21T13:16:58;13.00;;;8.00;;
60610;SDS011;46439;51.164;13.572;2023-11-21T13:19:27;10.30;;;6.30;;
60610;SDS011;46439;51.164;13.572;2023-11-21T13:21:55;10.90;;;6.40;;
60610;SDS011;46439;51.164;13.572;2023-11-21T13:24:25;11.70;;;7.70;;
60610;SDS011;46439;51.164;13.572;2023-11-21T13:26:53;11.60;;;7.10;;
60610;SDS011;46439;51.164;13.572;2023-11-21T13:29:22;10.50;;;5.80;;
60610;SDS011;46439;51.164;13.572;2023-11-21T13:31:52;11.10;;;6.70;;
60610;SDS011;46439;51.164;13.572;2023-11-21T13:34:22;11.70;;;6.80;;
60610;SDS011;46439;51.164;13.572;2023-11-21T13:36:54;11.00;;;6.90;;
60610;SDS011;46439;51.164;13.572;2023-11-21T13:39:25;17.70;;;8.00;;
60610;SDS011;46439;51.164;13.572;2023-11-21T13:41:55;9.90;;;5.60;;
60610;SDS011;46439;51.164;13.572;2023-11-21T13:44:24;13.40;;;6.80;;
60610;SDS011;46439;51.164;13.572;2023-11-21T13:47:02;14.30;;;7.20;;
60610;SDS011;46439;51.164;13.572;2023-11-21T13:49:33;9.60;;;5.10;;
60610;SDS011;46439;51.164;13.572;2023-11-21T13:52:07;12.20;;;7.00;;
60610;SDS011;46439;51.164;13.572;2023-11-21T13:54:40;10.80;;;5.80;;
60610;SDS011;46439;51.164;13.572;2023-11-21T13:57:08;13.20;;;6.80;;
60610;SDS011;46439;51.164;13.572;2023-11-21T13:59:37;13.80;;;6.80;;
60610;SDS011;46439;51.164;13.572;2023-11-21T14:02:05;10.60;;;6.00;;
60610;SDS011;46439;51.164;13.572;2023-11-21T14:04:54;9.70;;;5.70;;
60610;SDS011;46439;51.164;13.572;2023-11-21T14:07:27;11.50;;;5.50;;
60610;SDS011;46439;51.164;13.572;2023-11-21T14:10:02;8.50;;;5.10;;
60610;SDS011;46439;51.164;13.572;2023-11-21T14:12:34;9.30;;;5.30;;
60610;SDS011;46439;51.164;13.572;2023-11-21T14:15:06;7.60;;;5.00;;
60610;SDS011;46439;51.164;13.572;2023-11-21T14:17:36;10.20;;;5.90;;
60610;SDS011;46439;51.164;13.572;2023-11-21T14:20:09;13.40;;;6.10;;
60610;SDS011;46439;51.164;13.572;2023-11-21T14:22:42;8.30;;;4.30;;
60610;SDS011;46439;51.164;13.572;2023-11-21T14:25:12;8.10;;;4.50;;
60610;SDS011;46439;51.164;13.572;2023-11-21T14:27:41;8.90;;;5.10;;
60610;SDS011;46439;51.164;13.572;2023-11-21T14:30:11;8.90;;;4.60;;
60610;SDS011;46439;51.164;13.572;2023-11-21T14:32:45;9.40;;;5.30;;
60610;SDS011;46439;51.164;13.572;2023-11-21T14:35:14;10.40;;;5.60;;
60610;SDS011;46439;51.164;13.572;2023-11-21T14:37:44;9.70;;;5.20;;
60610;SDS011;46439;51.164;13.572;2023-11-21T14:40:13;9.30;;;5.30;;
60610;SDS011;46439;51.164;13.572;2023-11-21T14:42:48;12.50;;;6.00;;
60610;SDS011;46439;51.164;13.572;2023-11-21T14:45:19;10.10;;;5.70;;
60610;SDS011;46439;51.164;13.572;2023-11-21T14:47:50;10.70;;;5.90;;
60610;SDS011;46439;51.164;13.572;2023-11-21T14:50:45;9.00;;;5.00;;
60610;SDS011;46439;51.164;13.572;2023-11-21T14:53:13;9.50;;;5.30;;